sensor_id;sensor_type;location;lat;lon;timestamp;pressure;altitude;pressure_sealevel;temperature;humidity
38225;BME280;24025;48.138;11.428;2024-01-10T00:02:16;96152.28;;;-5.88;67.95
38225;BME280;24025;48.138;11.428;2024-01-10T00:04:48;96141.78;;;-5.77;68.06
38225;BME280;24025;48.138;11.428;2024-01-10T00:07:20;96144.69;;;-5.73;68.08
38225;BME280;24025;48.138;11.428;2024-01-10T00:09:52;96145.81;;;-5.64;67.50
38225;BME280;24025;48.138;11.428;2024-01-10T00:12:24;96147.22;;;-5.78;68.13
38225;BME280;24025;48.138;11.428;2024-01-10T00:14:55;96144.84;;;-5.80;68.07
38225;BME280;24025;48.138;11.428;2024-01-10T00:17:27;96141.88;;;-5.66;67.99
38225;BME280;24025;48.138;11.428;2024-01-10T00:19:58;96147.75;;;-5.76;68.25
38225;BME280;24025;48.138;11.428;2024-01-10T00:22:30;96142.25;;;-6.07;69.22
38225;BME280;24025;48.138;11.428;2024-01-10T00:25:02;96139.22;;;-5.98;69.62
38225;BME280;24025;48.138;11.428;2024-01-10T00:27:34;96145.19;;;-5.98;69.08
38225;BME280;24025;48.138;11.428;2024-01-10T00:30:06;96139.13;;;-6.09;69.60
38225;BME280;24025;48.138;11.428;2024-01-10T00:32:38;96138.44;;;-5.99;69.37
38225;BME280;24025;48.138;11.428;2024-01-10T00:35:10;96145.53;;;-5.89;69.53
38225;BME280;24025;48.138;11.428;2024-01-10T00:37:42;96142.97;;;-5.84;69.37
38225;BME280;24025;48.138;11.428;2024-01-10T00:40:14;96147.03;;;-5.72;69.21
38225;BME280;24025;48.138;11.428;2024-01-10T00:42:47;96144.72;;;-5.68;69.54
38225;BME280;24025;48.138;11.428;2024-01-10T00:45:18;96150.34;;;-5.76;69.75
38225;BME280;24025;48.138;11.428;2024-01-10T00:47:50;96148.94;;;-5.62;68.94
38225;BME280;24025;48.138;11.428;2024-01-10T00:50:22;96140.97;;;-5.55;69.56
38225;BME280;24025;48.138;11.428;2024-01-10T00:52:54;96140.47;;;-5.52;69.69
38225;BME280;24025;48.138;11.428;2024-01-10T00:55:25;96141.25;;;-5.52;70.45
38225;BME280;24025;48.138;11.428;2024-01-10T00:57:57;96148.88;;;-5.40;69.55
38225;BME280;24025;48.138;11.428;2024-01-10T01:00:28;96151.31;;;-5.33;69.82
38225;BME280;24025;48.138;11.428;2024-01-10T01:03:00;96144.00;;;-5.36;69.94
38225;BME280;24025;48.138;11.428;2024-01-10T01:05:32;96148.09;;;-5.41;70.30
38225;BME280;24025;48.138;11.428;2024-01-10T01:08:04;96147.91;;;-5.34;69.98
38225;BME280;24025;48.138;11.428;2024-01-10T01:10:36;96143.31;;;-5.27;70.19
38225;BME280;24025;48.138;11.428;2024-01-10T01:13:08;96150.13;;;-5.21;69.97
38225;BME280;24025;48.138;11.428;2024-01-10T01:15:41;96151.72;;;-5.15;69.89
38225;BME280;24025;48.138;11.428;2024-01-10T01:18:13;96152.50;;;-5.14;70.03
38225;BME280;24025;48.138;11.428;2024-01-10T01:20:46;96149.13;;;-5.15;70.98
38225;BME280;24025;48.138;11.428;2024-01-10T01:23:21;96147.66;;;-5.05;70.54
38225;BME280;24025;48.138;11.428;2024-01-10T01:26:09;96152.38;;;-5.02;71.05
38225;BME280;24025;48.138;11.428;2024-01-10T01:28:41;96157.50;;;-5.07;72.14
38225;BME280;24025;48.138;11.428;2024-01-10T01:31:12;96148.50;;;-4.95;71.60
38225;BME280;24025;48.138;11.428;2024-01-10T01:33:44;96164.19;;;-5.17;73.89
38225;BME280;24025;48.138;11.428;2024-01-10T01:36:16;96158.28;;;-5.12;73.59
38225;BME280;24025;48.138;11.428;2024-01-10T01:38:47;96156.75;;;-5.35;74.52
38225;BME280;24025;48.138;11.428;2024-01-10T01:41:19;96155.28;;;-5.53;75.81
38225;BME280;24025;48.138;11.428;2024-01-10T01:43:51;96159.06;;;-5.38;74.54
38225;BME280;24025;48.138;11.428;2024-01-10T01:46:23;96161.75;;;-5.28;74.50
38225;BME280;24025;48.138;11.428;2024-01-10T01:48:54;96161.16;;;-5.35;75.10
38225;BME280;24025;48.138;11.428;2024-01-10T01:51:27;96167.53;;;-5.21;74.73
38225;BME280;24025;48.138;11.428;2024-01-10T01:54:00;96172.44;;;-5.25;75.51
38225;BME280;24025;48.138;11.428;2024-01-10T01:56:32;96167.38;;;-5.09;74.74
38225;BME280;24025;48.138;11.428;2024-01-10T01:59:06;96174.88;;;-5.13;74.33
38225;BME280;24025;48.138;11.428;2024-01-10T02:01:39;96174.72;;;-5.01;74.33
38225;BME280;24025;48.138;11.428;2024-01-10T02:04:12;96174.22;;;-4.98;74.24
38225;BME280;24025;48.138;11.428;2024-01-10T02:06:44;96167.28;;;-4.88;73.68
38225;BME280;24025;48.138;11.428;2024-01-10T02:09:15;96174.56;;;-4.90;73.87
38225;BME280;24025;48.138;11.428;2024-01-10T02:11:48;96170.97;;;-4.83;73.91
38225;BME280;24025;48.138;11.428;2024-01-10T02:14:20;96172.81;;;-4.79;73.94
38225;BME280;24025;48.138;11.428;2024-01-10T02:16:52;96174.94;;;-4.76;73.50
38225;BME280;24025;48.138;11.428;2024-01-10T02:19:25;96180.41;;;-4.72;73.52
38225;BME280;24025;48.138;11.428;2024-01-10T02:21:58;96172.09;;;-4.69;73.62
38225;BME280;24025;48.138;11.428;2024-01-10T02:24:29;96170.81;;;-4.72;73.27
38225;BME280;24025;48.138;11.428;2024-01-10T02:27:01;96172.66;;;-4.67;73.32
38225;BME280;24025;48.138;11.428;2024-01-10T02:29:34;96171.38;;;-4.65;73.92
38225;BME280;24025;48.138;11.428;2024-01-10T02:32:06;96174.81;;;-4.59;73.56
38225;BME280;24025;48.138;11.428;2024-01-10T02:34:37;96170.34;;;-4.64;73.89
38225;BME280;24025;48.138;11.428;2024-01-10T02:37:09;96178.09;;;-4.69;73.97
38225;BME280;24025;48.138;11.428;2024-01-10T02:39:41;96174.31;;;-4.88;73.92
38225;BME280;24025;48.138;11.428;2024-01-10T02:42:12;96168.97;;;-4.76;73.71
38225;BME280;24025;48.138;11.428;2024-01-10T02:44:44;96177.56;;;-4.71;73.67
38225;BME280;24025;48.138;11.428;2024-01-10T02:47:16;96176.66;;;-4.87;74.54
38225;BME280;24025;48.138;11.428;2024-01-10T02:49:48;96173.38;;;-4.77;74.35
38225;BME280;24025;48.138;11.428;2024-01-10T02:52:20;96176.25;;;-4.73;74.43
38225;BME280;24025;48.138;11.428;2024-01-10T02:54:51;96172.91;;;-4.69;74.23
38225;BME280;24025;48.138;11.428;2024-01-10T02:57:23;96176.53;;;-4.70;74.07
38225;BME280;24025;48.138;11.428;2024-01-10T02:59:54;96170.06;;;-4.67;73.92
38225;BME280;24025;48.138;11.428;2024-01-10T03:02:26;96169.81;;;-4.66;74.06
38225;BME280;24025;48.138;11.428;2024-01-10T03:04:58;96168.53;;;-4.63;73.96
38225;BME280;24025;48.138;11.428;2024-01-10T03:07:30;96160.47;;;-4.62;73.49
38225;BME280;24025;48.138;11.428;2024-01-10T03:10:01;96158.91;;;-4.63;73.57
38225;BME280;24025;48.138;11.428;2024-01-10T03:12:33;96160.44;;;-4.67;73.47
38225;BME280;24025;48.138;11.428;2024-01-10T03:15:08;96158.91;;;-4.63;73.53
38225;BME280;24025;48.138;11.428;2024-01-10T03:17:40;96156.81;;;-4.61;73.85
38225;BME280;24025;48.138;11.428;2024-01-10T03:20:12;96160.22;;;-4.60;73.92
38225;BME280;24025;48.138;11.428;2024-01-10T03:22:43;96160.22;;;-4.60;73.97
38225;BME280;24025;48.138;11.428;2024-01-10T03:25:15;96149.34;;;-4.52;73.22
38225;BME280;24025;48.138;11.428;2024-01-10T03:27:46;96148.25;;;-4.61;74.04
38225;BME280;24025;48.138;11.428;2024-01-10T03:30:19;96148.03;;;-4.54;74.47
38225;BME280;24025;48.138;11.428;2024-01-10T03:32:51;96149.34;;;-4.52;74.10
38225;BME280;24025;48.138;11.428;2024-01-10T03:35:23;96141.53;;;-4.52;73.67
38225;BME280;24025;48.138;11.428;2024-01-10T03:37:54;96143.06;;;-4.56;74.43
38225;BME280;24025;48.138;11.428;2024-01-10T03:40:26;96137.25;;;-4.68;74.62
38225;BME280;24025;48.138;11.428;2024-01-10T03:42:58;96147.72;;;-4.63;74.63
38225;BME280;24025;48.138;11.428;2024-01-10T03:45:30;96138.91;;;-4.57;74.55
38225;BME280;24025;48.138;11.428;2024-01-10T03:48:02;96142.81;;;-4.54;74.41
38225;BME280;24025;48.138;11.428;2024-01-10T03:50:33;96136.06;;;-4.56;74.63
38225;BME280;24025;48.138;11.428;2024-01-10T03:53:06;96143.41;;;-4.47;74.10
38225;BME280;24025;48.138;11.428;2024-01-10T03:55:38;96136.88;;;-4.50;74.71
38225;BME280;24025;48.138;11.428;2024-01-10T03:58:10;96136.38;;;-4.47;75.04
38225;BME280;24025;48.138;11.428;2024-01-10T04:00:42;96129.59;;;-4.48;74.82
38225;BME280;24025;48.138;11.428;2024-01-10T04:03:13;96134.03;;;-4.43;74.95
38225;BME280;24025;48.138;11.428;2024-01-10T04:05:45;96136.91;;;-4.45;75.08
38225;BME280;24025;48.138;11.428;2024-01-10T04:08:17;96129.88;;;-4.44;75.45
38225;BME280;24025;48.138;11.428;2024-01-10T04:10:49;96127.00;;;-4.43;75.43
38225;BME280;24025;48.138;11.428;2024-01-10T04:13:21;96129.41;;;-4.36;74.88
38225;BME280;24025;48.138;11.428;2024-01-10T04:15:52;96124.50;;;-4.33;74.58
38225;BME280;24025;48.138;11.428;2024-01-10T04:18:24;96128.34;;;-4.35;75.33
38225;BME280;24025;48.138;11.428;2024-01-10T04:20:56;96136.22;;;-4.30;75.11
38225;BME280;24025;48.138;11.428;2024-01-10T04:23:28;96125.75;;;-4.40;75.20
38225;BME280;24025;48.138;11.428;2024-01-10T04:26:01;96133.56;;;-4.35;75.61
38225;BME280;24025;48.138;11.428;2024-01-10T04:28:33;96137.78;;;-4.29;75.20
38225;BME280;24025;48.138;11.428;2024-01-10T04:31:05;96138.28;;;-4.27;75.44
38225;BME280;24025;48.138;11.428;2024-01-10T04:33:36;96136.69;;;-4.33;75.42
38225;BME280;24025;48.138;11.428;2024-01-10T04:36:08;96130.22;;;-4.25;75.05
38225;BME280;24025;48.138;11.428;2024-01-10T04:38:40;96128.69;;;-4.21;75.09
38225;BME280;24025;48.138;11.428;2024-01-10T04:41:11;96127.66;;;-4.20;75.18
38225;BME280;24025;48.138;11.428;2024-01-10T04:43:43;96124.53;;;-4.17;74.51
38225;BME280;24025;48.138;11.428;2024-01-10T04:46:15;96120.38;;;-4.18;74.60
38225;BME280;24025;48.138;11.428;2024-01-10T04:48:47;96127.13;;;-4.22;74.55
38225;BME280;24025;48.138;11.428;2024-01-10T04:51:19;96127.91;;;-4.22;74.89
38225;BME280;24025;48.138;11.428;2024-01-10T04:53:51;96132.34;;;-4.17;75.26
38225;BME280;24025;48.138;11.428;2024-01-10T04:56:22;96124.81;;;-4.19;75.13
38225;BME280;24025;48.138;11.428;2024-01-10T04:58:54;96131.09;;;-4.15;74.93
38225;BME280;24025;48.138;11.428;2024-01-10T05:01:26;96132.91;;;-4.10;74.69
38225;BME280;24025;48.138;11.428;2024-01-10T05:03:57;96133.94;;;-4.11;75.06
38225;BME280;24025;48.138;11.428;2024-01-10T05:06:29;96139.69;;;-4.09;74.70
38225;BME280;24025;48.138;11.428;2024-01-10T05:09:01;96130.53;;;-4.17;75.70
38225;BME280;24025;48.138;11.428;2024-01-10T05:11:32;96131.88;;;-4.14;75.07
38225;BME280;24025;48.138;11.428;2024-01-10T05:14:07;96129.22;;;-4.19;75.05
38225;BME280;24025;48.138;11.428;2024-01-10T05:16:38;96129.00;;;-4.13;74.84
38225;BME280;24025;48.138;11.428;2024-01-10T05:19:10;96135.78;;;-4.12;75.03
38225;BME280;24025;48.138;11.428;2024-01-10T05:21:42;96134.72;;;-4.11;74.73
38225;BME280;24025;48.138;11.428;2024-01-10T05:24:13;96132.88;;;-4.15;74.77
38225;BME280;24025;48.138;11.428;2024-01-10T05:26:45;96135.78;;;-4.12;75.42
38225;BME280;24025;48.138;11.428;2024-01-10T05:29:16;96139.16;;;-4.11;74.39
38225;BME280;24025;48.138;11.428;2024-01-10T05:31:51;96136.81;;;-4.13;74.52
38225;BME280;24025;48.138;11.428;2024-01-10T05:34:23;96140.69;;;-4.15;74.54
38225;BME280;24025;48.138;11.428;2024-01-10T05:36:54;96138.84;;;-4.20;74.65
38225;BME280;24025;48.138;11.428;2024-01-10T05:39:26;96139.91;;;-4.21;75.02
38225;BME280;24025;48.138;11.428;2024-01-10T05:41:58;96145.38;;;-4.17;74.61
38225;BME280;24025;48.138;11.428;2024-01-10T05:44:30;96145.88;;;-4.20;75.05
38225;BME280;24025;48.138;11.428;2024-01-10T05:47:03;96147.19;;;-4.18;74.73
38225;BME280;24025;48.138;11.428;2024-01-10T05:49:34;96154.72;;;-4.21;74.98
38225;BME280;24025;48.138;11.428;2024-01-10T05:52:06;96155.47;;;-4.26;75.11
38225;BME280;24025;48.138;11.428;2024-01-10T05:54:39;96153.44;;;-4.24;75.11
38225;BME280;24025;48.138;11.428;2024-01-10T05:57:11;96152.63;;;-4.24;74.96
38225;BME280;24025;48.138;11.428;2024-01-10T05:59:42;96157.81;;;-4.30;74.75
38225;BME280;24025;48.138;11.428;2024-01-10T06:02:14;96163.53;;;-4.28;74.92
38225;BME280;24025;48.138;11.428;2024-01-10T06:04:48;96167.19;;;-4.29;74.69
38225;BME280;24025;48.138;11.428;2024-01-10T06:07:20;96162.25;;;-4.25;74.87
38225;BME280;24025;48.138;11.428;2024-01-10T06:09:55;96171.09;;;-4.26;74.57
38225;BME280;24025;48.138;11.428;2024-01-10T06:12:26;96167.44;;;-4.25;74.89
38225;BME280;24025;48.138;11.428;2024-01-10T06:14:58;96173.16;;;-4.28;74.91
38225;BME280;24025;48.138;11.428;2024-01-10T06:17:29;96180.47;;;-4.25;74.49
38225;BME280;24025;48.138;11.428;2024-01-10T06:20:03;96171.09;;;-4.31;74.65
38225;BME280;24025;48.138;11.428;2024-01-10T06:22:36;96180.97;;;-4.28;75.19
38225;BME280;24025;48.138;11.428;2024-01-10T06:25:08;96174.22;;;-4.29;74.87
38225;BME280;24025;48.138;11.428;2024-01-10T06:27:40;96172.66;;;-4.30;75.16
38225;BME280;24025;48.138;11.428;2024-01-10T06:30:12;96171.09;;;-4.31;75.01
38225;BME280;24025;48.138;11.428;2024-01-10T06:32:44;96170.78;;;-4.35;75.30
38225;BME280;24025;48.138;11.428;2024-01-10T06:35:16;96168.97;;;-4.34;75.25
38225;BME280;24025;48.138;11.428;2024-01-10T06:37:48;96168.44;;;-4.36;75.11
38225;BME280;24025;48.138;11.428;2024-01-10T06:40:20;96173.66;;;-4.36;74.68
38225;BME280;24025;48.138;11.428;2024-01-10T06:42:53;96167.09;;;-4.44;74.84
38225;BME280;24025;48.138;11.428;2024-01-10T06:45:26;96163.69;;;-4.49;75.18
38225;BME280;24025;48.138;11.428;2024-01-10T06:47:57;96165.72;;;-4.51;74.79
38225;BME280;24025;48.138;11.428;2024-01-10T06:50:29;96163.59;;;-4.60;75.34
38225;BME280;24025;48.138;11.428;2024-01-10T06:53:02;96171.94;;;-4.58;75.10
38225;BME280;24025;48.138;11.428;2024-01-10T06:55:34;96175.34;;;-4.57;75.35
38225;BME280;24025;48.138;11.428;2024-01-10T06:58:06;96174.03;;;-4.54;75.30
38225;BME280;24025;48.138;11.428;2024-01-10T07:00:38;96182.09;;;-4.56;75.01
38225;BME280;24025;48.138;11.428;2024-01-10T07:03:10;96179.75;;;-4.58;75.27
38225;BME280;24025;48.138;11.428;2024-01-10T07:05:41;96180.81;;;-4.53;74.53
38225;BME280;24025;48.138;11.428;2024-01-10T07:08:16;96183.41;;;-4.53;75.17
38225;BME280;24025;48.138;11.428;2024-01-10T07:10:48;96185.50;;;-4.56;74.90
38225;BME280;24025;48.138;11.428;2024-01-10T07:13:20;96181.28;;;-4.62;75.12
38225;BME280;24025;48.138;11.428;2024-01-10T07:15:51;96188.03;;;-4.61;74.69
38225;BME280;24025;48.138;11.428;2024-01-10T07:18:23;96190.66;;;-4.61;74.88
38225;BME280;24025;48.138;11.428;2024-01-10T07:20:55;96192.47;;;-4.61;75.32
38225;BME280;24025;48.138;11.428;2024-01-10T07:23:27;96191.19;;;-4.59;74.90
38225;BME280;24025;48.138;11.428;2024-01-10T07:25:58;96195.13;;;-4.51;74.84
38225;BME280;24025;48.138;11.428;2024-01-10T07:28:30;96204.81;;;-4.46;74.25
38225;BME280;24025;48.138;11.428;2024-01-10T07:31:04;96204.56;;;-4.45;74.48
38225;BME280;24025;48.138;11.428;2024-01-10T07:33:36;96210.06;;;-4.41;73.97
38225;BME280;24025;48.138;11.428;2024-01-10T07:36:07;96199.66;;;-4.41;74.29
38225;BME280;24025;48.138;11.428;2024-01-10T07:38:39;96201.50;;;-4.37;74.08
38225;BME280;24025;48.138;11.428;2024-01-10T07:41:11;96206.97;;;-4.33;74.16
38225;BME280;24025;48.138;11.428;2024-01-10T07:43:43;96202.56;;;-4.33;73.70
38225;BME280;24025;48.138;11.428;2024-01-10T07:46:15;96205.44;;;-4.29;74.15
38225;BME280;24025;48.138;11.428;2024-01-10T07:48:46;96207.53;;;-4.26;73.57
38225;BME280;24025;48.138;11.428;2024-01-10T07:51:18;96213.31;;;-4.19;73.84
38225;BME280;24025;48.138;11.428;2024-01-10T07:53:52;96208.69;;;-4.12;73.74
38225;BME280;24025;48.138;11.428;2024-01-10T07:56:24;96215.97;;;-4.09;73.66
38225;BME280;24025;48.138;11.428;2024-01-10T07:58:56;96215.72;;;-4.07;73.07
38225;BME280;24025;48.138;11.428;2024-01-10T08:01:27;96213.91;;;-4.07;73.32
38225;BME280;24025;48.138;11.428;2024-01-10T08:03:59;96221.00;;;-3.97;73.59
38225;BME280;24025;48.138;11.428;2024-01-10T08:06:31;96224.66;;;-3.93;72.80
38225;BME280;24025;48.138;11.428;2024-01-10T08:09:04;96223.09;;;-3.89;73.27
38225;BME280;24025;48.138;11.428;2024-01-10T08:11:38;96221.50;;;-4.00;73.21
38225;BME280;24025;48.138;11.428;2024-01-10T08:14:11;96223.22;;;-4.16;74.92
38225;BME280;24025;48.138;11.428;2024-01-10T08:16:42;96225.66;;;-3.99;73.34
38225;BME280;24025;48.138;11.428;2024-01-10T08:19:19;96219.97;;;-3.91;73.81
38225;BME280;24025;48.138;11.428;2024-01-10T08:21:54;96223.31;;;-4.01;73.04
38225;BME280;24025;48.138;11.428;2024-01-10T08:24:25;96218.38;;;-4.02;73.21
38225;BME280;24025;48.138;11.428;2024-01-10T08:26:57;96222.75;;;-4.08;73.57
38225;BME280;24025;48.138;11.428;2024-01-10T08:29:28;96223.53;;;-4.07;73.82
38225;BME280;24025;48.138;11.428;2024-01-10T08:32:03;96219.44;;;-3.93;73.75
38225;BME280;24025;48.138;11.428;2024-01-10T08:34:35;96223.66;;;-3.87;73.49
38225;BME280;24025;48.138;11.428;2024-01-10T08:37:07;96224.72;;;-3.83;73.48
38225;BME280;24025;48.138;11.428;2024-01-10T08:39:39;96223.22;;;-3.68;73.30
38225;BME280;24025;48.138;11.428;2024-01-10T08:42:10;96231.56;;;-3.66;72.68
38225;BME280;24025;48.138;11.428;2024-01-10T08:44:42;96224.78;;;-3.67;73.13
38225;BME280;24025;48.138;11.428;2024-01-10T08:47:14;96234.22;;;-3.56;72.52
38225;BME280;24025;48.138;11.428;2024-01-10T08:49:46;96232.16;;;-3.49;72.81
38225;BME280;24025;48.138;11.428;2024-01-10T08:52:18;96224.84;;;-3.52;71.87
38225;BME280;24025;48.138;11.428;2024-01-10T08:54:49;96235.31;;;-3.37;72.22
38225;BME280;24025;48.138;11.428;2024-01-10T08:57:21;96234.28;;;-3.36;72.28
38225;BME280;24025;48.138;11.428;2024-01-10T08:59:53;96236.16;;;-3.26;71.17
38225;BME280;24025;48.138;11.428;2024-01-10T09:02:26;96237.16;;;-3.27;71.33
38225;BME280;24025;48.138;11.428;2024-01-10T09:04:59;96245.22;;;-3.44;70.64
38225;BME280;24025;48.138;11.428;2024-01-10T09:07:30;96235.06;;;-3.40;71.47
38225;BME280;24025;48.138;11.428;2024-01-10T09:10:02;96239.75;;;-3.37;71.62
38225;BME280;24025;48.138;11.428;2024-01-10T09:12:37;96242.91;;;-3.35;71.22
38225;BME280;24025;48.138;11.428;2024-01-10T09:15:09;96244.75;;;-3.21;70.82
38225;BME280;24025;48.138;11.428;2024-01-10T09:17:45;96249.25;;;-3.06;71.04
38225;BME280;24025;48.138;11.428;2024-01-10T09:20:16;96253.69;;;-3.06;70.09
38225;BME280;24025;48.138;11.428;2024-01-10T09:22:48;96251.31;;;-3.03;69.79
38225;BME280;24025;48.138;11.428;2024-01-10T09:25:20;96250.84;;;-2.85;70.28
38225;BME280;24025;48.138;11.428;2024-01-10T09:27:52;96247.47;;;-2.70;69.39
38225;BME280;24025;48.138;11.428;2024-01-10T09:30:24;96245.16;;;-2.56;69.41
38225;BME280;24025;48.138;11.428;2024-01-10T09:32:57;96255.06;;;-2.43;68.43
38225;BME280;24025;48.138;11.428;2024-01-10T09:35:29;96251.41;;;-2.37;68.34
38225;BME280;24025;48.138;11.428;2024-01-10T09:38:00;96260.00;;;-2.31;68.60
38225;BME280;24025;48.138;11.428;2024-01-10T09:40:32;96255.59;;;-2.25;68.57
38225;BME280;24025;48.138;11.428;2024-01-10T09:43:05;96252.97;;;-2.10;68.27
38225;BME280;24025;48.138;11.428;2024-01-10T09:45:43;96250.34;;;-2.10;67.46
38225;BME280;24025;48.138;11.428;2024-01-10T09:48:17;96259.47;;;-2.13;67.14
38225;BME280;24025;48.138;11.428;2024-01-10T09:50:50;96254.78;;;-2.06;67.16
38225;BME280;24025;48.138;11.428;2024-01-10T09:53:23;96256.84;;;-1.97;66.88
38225;BME280;24025;48.138;11.428;2024-01-10T09:55:55;96257.38;;;-1.90;66.76
38225;BME280;24025;48.138;11.428;2024-01-10T09:58:32;96257.59;;;-1.72;66.47
38225;BME280;24025;48.138;11.428;2024-01-10T10:01:10;96257.84;;;-1.73;67.16
38225;BME280;24025;48.138;11.428;2024-01-10T10:03:45;96248.66;;;-1.60;66.79
38225;BME280;24025;48.138;11.428;2024-01-10T10:06:17;96251.03;;;-1.64;65.44
38225;BME280;24025;48.138;11.428;2024-01-10T10:08:49;96254.91;;;-1.46;65.64
38225;BME280;24025;48.138;11.428;2024-01-10T10:11:21;96255.91;;;-1.42;65.47
38225;BME280;24025;48.138;11.428;2024-01-10T10:13:52;96251.41;;;-1.26;65.86
38225;BME280;24025;48.138;11.428;2024-01-10T10:16:25;96251.13;;;-1.20;65.69
38225;BME280;24025;48.138;11.428;2024-01-10T10:19:00;96261.53;;;-1.09;65.10
38225;BME280;24025;48.138;11.428;2024-01-10T10:21:31;96248.75;;;-1.16;65.03
38225;BME280;24025;48.138;11.428;2024-01-10T10:24:03;96250.03;;;-1.08;65.12
38225;BME280;24025;48.138;11.428;2024-01-10T10:26:35;96256.81;;;-1.02;64.73
38225;BME280;24025;48.138;11.428;2024-01-10T10:29:07;96253.94;;;-1.06;64.62
38225;BME280;24025;48.138;11.428;2024-01-10T10:31:39;96251.34;;;-1.11;64.36
38225;BME280;24025;48.138;11.428;2024-01-10T10:34:12;96248.91;;;-0.97;64.70
38225;BME280;24025;48.138;11.428;2024-01-10T10:36:44;96252.63;;;-1.08;64.58
38225;BME280;24025;48.138;11.428;2024-01-10T10:39:17;96259.34;;;-0.87;64.75
38225;BME280;24025;48.138;11.428;2024-01-10T10:41:50;96252.72;;;-0.74;64.66
38225;BME280;24025;48.138;11.428;2024-01-10T10:44:24;96254.94;;;-0.52;64.10
38225;BME280;24025;48.138;11.428;2024-01-10T10:46:59;96250.63;;;-0.38;63.66
38225;BME280;24025;48.138;11.428;2024-01-10T10:49:51;96256.34;;;-0.31;62.77
38225;BME280;24025;48.138;11.428;2024-01-10T10:52:24;96253.22;;;-0.33;62.52
38225;BME280;24025;48.138;11.428;2024-01-10T10:54:58;96251.72;;;-0.44;62.94
38225;BME280;24025;48.138;11.428;2024-01-10T10:57:31;96253.41;;;-0.24;62.61
38225;BME280;24025;48.138;11.428;2024-01-10T11:00:03;96245.66;;;-0.11;63.08
38225;BME280;24025;48.138;11.428;2024-01-10T11:02:38;96249.09;;;0.19;62.32
38225;BME280;24025;48.138;11.428;2024-01-10T11:05:11;96250.81;;;0.28;62.31
38225;BME280;24025;48.138;11.428;2024-01-10T11:07:43;96250.03;;;0.52;61.77
38225;BME280;24025;48.138;11.428;2024-01-10T11:10:27;96254.66;;;0.60;60.93
38225;BME280;24025;48.138;11.428;2024-01-10T11:13:25;96251.34;;;0.54;61.01
38225;BME280;24025;48.138;11.428;2024-01-10T11:18:58;96251.22;;;1.07;60.22
38225;BME280;24025;48.138;11.428;2024-01-10T11:24:21;96252.47;;;1.10;57.95
38225;BME280;24025;48.138;11.428;2024-01-10T11:27:12;96252.25;;;1.44;58.76
38225;BME280;24025;48.138;11.428;2024-01-10T11:29:46;96255.66;;;1.63;58.92
38225;BME280;24025;48.138;11.428;2024-01-10T11:32:22;96257.16;;;1.83;58.11
38225;BME280;24025;48.138;11.428;2024-01-10T11:37:39;96248.78;;;2.14;57.17
38225;BME280;24025;48.138;11.428;2024-01-10T11:40:12;96254.81;;;2.28;57.00
38225;BME280;24025;48.138;11.428;2024-01-10T11:42:45;96249.19;;;2.35;57.28
38225;BME280;24025;48.138;11.428;2024-01-10T11:48:07;96248.56;;;1.96;56.15
38225;BME280;24025;48.138;11.428;2024-01-10T11:50:40;96244.81;;;1.84;56.08
38225;BME280;24025;48.138;11.428;2024-01-10T11:53:12;96249.47;;;2.47;56.17
38225;BME280;24025;48.138;11.428;2024-01-10T11:55:50;96251.81;;;2.35;56.21
38225;BME280;24025;48.138;11.428;2024-01-10T11:58:23;96242.25;;;2.94;55.15
38225;BME280;24025;48.138;11.428;2024-01-10T12:00:55;96234.16;;;3.04;53.54
38225;BME280;24025;48.138;11.428;2024-01-10T12:03:28;96229.88;;;2.80;53.88
38225;BME280;24025;48.138;11.428;2024-01-10T12:06:00;96246.41;;;3.22;52.63
38225;BME280;24025;48.138;11.428;2024-01-10T12:08:32;96241.75;;;3.41;51.03
38225;BME280;24025;48.138;11.428;2024-01-10T12:11:04;96252.63;;;3.26;52.55
38225;BME280;24025;48.138;11.428;2024-01-10T12:13:36;96256.22;;;3.30;51.18
38225;BME280;24025;48.138;11.428;2024-01-10T12:16:12;96261.09;;;2.46;52.98
38225;BME280;24025;48.138;11.428;2024-01-10T12:18:44;96251.28;;;3.15;52.77
38225;BME280;24025;48.138;11.428;2024-01-10T12:21:16;96256.69;;;2.82;52.64
38225;BME280;24025;48.138;11.428;2024-01-10T12:23:47;96249.63;;;3.19;51.58
38225;BME280;24025;48.138;11.428;2024-01-10T12:26:19;96251.81;;;3.39;51.23
38225;BME280;24025;48.138;11.428;2024-01-10T12:28:58;96249.97;;;4.07;50.20
38225;BME280;24025;48.138;11.428;2024-01-10T12:31:31;96242.13;;;4.64;49.49
38225;BME280;24025;48.138;11.428;2024-01-10T12:34:02;96243.66;;;4.57;48.12
38225;BME280;24025;48.138;11.428;2024-01-10T12:36:38;96245.22;;;5.84;46.79
38225;BME280;24025;48.138;11.428;2024-01-10T12:39:11;96247.16;;;6.39;43.98
38225;BME280;24025;48.138;11.428;2024-01-10T12:41:43;96230.16;;;7.07;43.01
38225;BME280;24025;48.138;11.428;2024-01-10T12:44:16;96230.00;;;7.04;40.74
38225;BME280;24025;48.138;11.428;2024-01-10T12:46:51;96231.38;;;7.73;40.32
38225;BME280;24025;48.138;11.428;2024-01-10T12:49:23;96231.50;;;8.67;39.11
38225;BME280;24025;48.138;11.428;2024-01-10T12:51:55;96229.06;;;9.11;38.52
38225;BME280;24025;48.138;11.428;2024-01-10T12:54:27;96222.75;;;8.66;38.73
38225;BME280;24025;48.138;11.428;2024-01-10T12:56:58;96226.00;;;8.27;39.43
38225;BME280;24025;48.138;11.428;2024-01-10T12:59:30;96235.47;;;8.48;38.70
38225;BME280;24025;48.138;11.428;2024-01-10T13:02:02;96230.22;;;7.61;40.64
38225;BME280;24025;48.138;11.428;2024-01-10T13:04:33;96227.66;;;7.02;42.10
38225;BME280;24025;48.138;11.428;2024-01-10T13:07:05;96220.47;;;7.86;40.68
38225;BME280;24025;48.138;11.428;2024-01-10T13:09:37;96224.28;;;7.98;40.63
38225;BME280;24025;48.138;11.428;2024-01-10T13:12:10;96215.75;;;8.86;39.03
38225;BME280;24025;48.138;11.428;2024-01-10T13:14:42;96216.25;;;9.69;37.22
38225;BME280;24025;48.138;11.428;2024-01-10T13:17:13;96221.97;;;8.78;38.28
38225;BME280;24025;48.138;11.428;2024-01-10T13:19:47;96219.16;;;9.23;38.24
38225;BME280;24025;48.138;11.428;2024-01-10T13:22:20;96218.53;;;8.90;38.35
38225;BME280;24025;48.138;11.428;2024-01-10T13:24:52;96219.53;;;8.85;38.89
38225;BME280;24025;48.138;11.428;2024-01-10T13:27:24;96223.78;;;8.29;38.89
38225;BME280;24025;48.138;11.428;2024-01-10T13:29:55;96224.19;;;8.64;39.61
38225;BME280;24025;48.138;11.428;2024-01-10T13:32:27;96225.75;;;8.77;38.83